Time;durP1;ratioP1;P1;durP2;ratioP2;P2;SDS_P1;SDS_P2;PMS_P1;PMS_P2;Temp;Humidity;BMP_temperature;BMP_pressure;BME280_temperature;BME280_humidity;BME280_pressure;Samples;Min_cycle;Max_cycle;Signal;HPM_P1;HPM_P2
2023/06/28 00:00:28;;;;;;;3.60;2.30;;;19.20;55.60;;;;;;5052602;28;20436;-69
2023/06/28 00:02:57;;;;;;;5.47;2.13;;;19.20;56.00;;;;;;5050897;28;20495;-69
2023/06/28 00:05:25;;;;;;;5.10;2.20;;;19.10;56.20;;;;;;5052120;28;20440;-69
2023/06/28 00:07:54;;;;;;;2.43;2.20;;;19.10;56.80;;;;;;5052067;28;21056;-69
2023/06/28 00:10:22;;;;;;;4.40;1.90;;;19.20;56.10;;;;;;5051628;28;20954;-68
2023/06/28 00:12:50;;;;;;;4.60;2.50;;;19.20;56.30;;;;;;5050558;28;20483;-68
2023/06/28 00:15:18;;;;;;;7.67;2.33;;;19.20;56.50;;;;;;5051254;28;20486;-68
2023/06/28 00:17:46;;;;;;;3.60;2.10;;;19.10;56.20;;;;;;5051526;28;20459;-68
2023/06/28 00:20:14;;;;;;;4.63;2.30;;;19.10;56.30;;;;;;5050963;28;21016;-69
2023/06/28 00:22:42;;;;;;;6.03;2.87;;;19.10;56.70;;;;;;5050018;28;20480;-69
2023/06/28 00:25:12;;;;;;;3.03;1.90;;;19.00;57.20;;;;;;5051161;28;20452;-69
2023/06/28 00:27:40;;;;;;;3.03;1.93;;;19.00;57.40;;;;;;5051057;28;20497;-69
2023/06/28 00:30:09;;;;;;;3.97;2.50;;;19.00;57.40;;;;;;5050912;28;20534;-70
2023/06/28 00:32:37;;;;;;;3.90;2.40;;;19.00;56.80;;;;;;5049619;28;20456;-68
2023/06/28 00:35:06;;;;;;;5.37;2.27;;;19.00;57.20;;;;;;5051569;28;20443;-68
2023/06/28 00:37:34;;;;;;;3.20;2.07;;;19.00;57.40;;;;;;5051253;28;20448;-70
2023/06/28 00:40:03;;;;;;;8.10;2.90;;;19.00;57.30;;;;;;5051217;28;20934;-69
2023/06/28 00:42:32;;;;;;;2.77;1.83;;;18.90;57.60;;;;;;5049949;28;20496;-68
2023/06/28 00:45:00;;;;;;;5.73;2.60;;;18.80;58.60;;;;;;5050775;28;20444;-71
2023/06/28 00:47:29;;;;;;;5.47;2.00;;;18.80;58.60;;;;;;5050817;28;20447;-68
2023/06/28 00:49:59;;;;;;;5.77;2.80;;;18.70;59.40;;;;;;5051070;28;20440;-68
2023/06/28 00:52:28;;;;;;;5.30;2.50;;;18.70;58.90;;;;;;5050070;28;20547;-68
2023/06/28 00:54:56;;;;;;;3.27;2.20;;;18.70;58.90;;;;;;5050318;28;21092;-69
2023/06/28 00:57:24;;;;;;;5.50;2.37;;;18.70;58.60;;;;;;5050893;28;20526;-69
2023/06/28 00:59:56;;;;;;;3.57;2.13;;;18.80;57.90;;;;;;5050242;28;20573;-69
2023/06/28 01:02:24;;;;;;;3.40;2.00;;;18.80;57.90;;;;;;5049438;28;20432;-69
2023/06/28 01:04:57;;;;;;;3.67;2.63;;;18.80;58.20;;;;;;5050620;28;20535;-68
2023/06/28 01:07:27;;;;;;;5.50;2.47;;;18.80;57.90;;;;;;5050204;28;21168;-69
2023/06/28 01:09:57;;;;;;;3.00;2.10;;;18.80;58.10;;;;;;5050672;28;20814;-69
2023/06/28 01:12:26;;;;;;;2.97;2.13;;;18.80;58.30;;;;;;5049031;28;20439;-69
2023/06/28 01:14:55;;;;;;;6.57;4.10;;;18.80;58.40;;;;;;5050018;28;20482;-69
2023/06/28 01:17:23;;;;;;;3.57;2.30;;;18.80;58.60;;;;;;5050058;28;20474;-69
2023/06/28 01:19:54;;;;;;;3.00;2.13;;;18.70;58.80;;;;;;5050244;28;20440;-69
2023/06/28 01:22:25;;;;;;;4.50;2.37;;;18.70;59.00;;;;;;5049214;28;20535;-69
2023/06/28 01:24:56;;;;;;;3.70;2.70;;;18.60;59.30;;;;;;5050097;28;20443;-68
2023/06/28 01:27:24;;;;;;;3.33;2.43;;;18.60;59.30;;;;;;5050194;28;20850;-69
2023/06/28 01:29:56;;;;;;;8.10;2.50;;;18.60;59.50;;;;;;5049653;28;20444;-68
2023/06/28 01:32:24;;;;;;;4.53;2.23;;;18.60;61.50;;;;;;5049190;28;20551;-69
2023/06/28 01:34:53;;;;;;;3.30;2.30;;;18.50;61.60;;;;;;5049568;28;20533;-69
2023/06/28 01:37:22;;;;;;;3.57;2.33;;;18.50;61.50;;;;;;5049923;28;20533;-70
2023/06/28 01:39:50;;;;;;;2.80;2.50;;;18.30;63.90;;;;;;5049737;28;20450;-69
2023/06/28 01:42:20;;;;;;;5.77;2.53;;;18.10;65.70;;;;;;5049331;28;20535;-69
2023/06/28 01:44:48;;;;;;;5.43;2.43;;;17.90;67.60;;;;;;5049295;28;20519;-69
2023/06/28 01:47:17;;;;;;;8.83;3.90;;;17.70;69.50;;;;;;5049780;28;20475;-69
2023/06/28 01:49:46;;;;;;;3.63;2.90;;;17.50;74.10;;;;;;5049660;28;20436;-69
2023/06/28 01:52:14;;;;;;;4.00;2.90;;;17.30;76.50;;;;;;5048503;28;20436;-69
2023/06/28 01:54:42;;;;;;;3.37;3.07;;;17.20;75.40;;;;;;5048906;28;20579;-69
2023/06/28 01:57:10;;;;;;;3.70;2.73;;;17.20;74.60;;;;;;5049434;28;20837;-68
2023/06/28 01:59:39;;;;;;;3.47;2.80;;;17.10;74.20;;;;;;5049613;28;20439;-69
2023/06/28 02:02:08;;;;;;;6.37;3.13;;;17.00;78.50;;;;;;5048617;28;20440;-68
2023/06/28 02:04:36;;;;;;;5.03;3.00;;;17.00;86.20;;;;;;5048496;28;20522;-68
2023/06/28 02:07:04;;;;;;;4.50;2.80;;;16.90;87.40;;;;;;5049931;28;20482;-68
2023/06/28 02:09:32;;;;;;;6.60;3.63;;;16.90;88.10;;;;;;5049683;28;20479;-69
2023/06/28 02:12:00;;;;;;;5.87;3.70;;;16.80;87.40;;;;;;5049588;28;21118;-73
2023/06/28 02:14:28;;;;;;;3.70;3.30;;;16.70;89.90;;;;;;5048053;28;20480;-69
2023/06/28 02:16:58;;;;;;;3.70;2.47;;;16.70;91.50;;;;;;5049467;28;20793;-69
2023/06/28 02:19:26;;;;;;;3.90;2.97;;;16.70;88.30;;;;;;5049130;28;20456;-68
2023/06/28 02:21:54;;;;;;;4.27;2.67;;;16.70;86.60;;;;;;5049638;28;20873;-69
2023/06/28 02:24:21;;;;;;;3.67;3.07;;;16.70;87.00;;;;;;5048030;28;20466;-68
2023/06/28 02:26:49;;;;;;;5.90;2.80;;;16.60;90.30;;;;;;5049527;28;20448;-68
2023/06/28 02:29:17;;;;;;;4.00;3.03;;;16.60;89.00;;;;;;5049608;28;20449;-68
2023/06/28 02:31:45;;;;;;;3.93;3.50;;;16.50;88.40;;;;;;5049321;28;20554;-69
2023/06/28 02:34:15;;;;;;;4.53;2.77;;;16.60;86.60;;;;;;5048278;28;20537;-69
2023/06/28 02:36:43;;;;;;;3.30;3.00;;;16.50;88.90;;;;;;5049389;28;20492;-68
2023/06/28 02:39:11;;;;;;;4.90;2.87;;;16.60;90.70;;;;;;5049287;28;20593;-68
2023/06/28 02:41:39;;;;;;;8.30;3.10;;;16.70;91.40;;;;;;5048624;28;20476;-68
2023/06/28 02:44:07;;;;;;;4.87;3.00;;;16.70;91.20;;;;;;5048157;28;20556;-68
2023/06/28 02:46:35;;;;;;;4.47;3.20;;;16.90;90.60;;;;;;5049583;28;20448;-68
2023/06/28 02:49:03;;;;;;;4.07;3.30;;;16.80;91.10;;;;;;5049181;28;20444;-69
2023/06/28 02:51:32;;;;;;;6.00;3.40;;;16.90;88.80;;;;;;5049354;28;20486;-68
2023/06/28 02:54:01;;;;;;;5.40;3.47;;;17.00;90.20;;;;;;5047603;28;20478;-68
2023/06/28 02:56:29;;;;;;;3.97;2.80;;;17.00;90.30;;;;;;5048839;28;20925;-69
2023/06/28 02:58:57;;;;;;;4.03;2.83;;;17.00;89.90;;;;;;5049158;28;20861;-69
2023/06/28 03:01:25;;;;;;;3.47;3.10;;;17.00;88.30;;;;;;5049272;28;20444;-68
2023/06/28 03:03:54;;;;;;;5.43;3.17;;;17.00;88.50;;;;;;5050066;28;20498;-68
2023/06/28 03:06:22;;;;;;;3.73;3.07;;;17.10;87.70;;;;;;5052735;28;21141;-69
2023/06/28 03:08:51;;;;;;;2.97;2.70;;;17.10;87.00;;;;;;5052711;28;20867;-69
2023/06/28 03:11:19;;;;;;;4.90;2.80;;;17.20;88.10;;;;;;5052267;28;20870;-68
2023/06/28 03:13:47;;;;;;;8.83;3.37;;;17.30;88.50;;;;;;5051301;28;20463;-69
2023/06/28 03:16:15;;;;;;;4.90;2.50;;;17.30;86.40;;;;;;5052343;28;20896;-69
2023/06/28 03:18:43;;;;;;;3.27;2.80;;;17.30;85.70;;;;;;5052505;28;20501;-68
2023/06/28 03:21:11;;;;;;;5.30;2.60;;;17.30;86.60;;;;;;5052277;28;20462;-69
2023/06/28 03:23:39;;;;;;;4.23;2.77;;;17.30;85.80;;;;;;5051016;28;20512;-69
2023/06/28 03:26:09;;;;;;;3.00;2.70;;;17.30;84.70;;;;;;5052684;28;20494;-69
2023/06/28 03:28:37;;;;;;;3.73;2.87;;;17.30;82.50;;;;;;5049143;28;20467;-68
2023/06/28 03:31:05;;;;;;;3.50;3.00;;;17.50;82.60;;;;;;5032427;28;20950;-69
2023/06/28 03:33:33;;;;;;;4.90;3.03;;;17.50;82.80;;;;;;5031022;28;20583;-69
2023/06/28 03:36:01;;;;;;;3.93;2.80;;;17.60;82.90;;;;;;5032080;28;20519;-70
2023/06/28 03:38:29;;;;;;;5.47;2.70;;;17.60;81.70;;;;;;5032213;28;20449;-69
2023/06/28 03:40:57;;;;;;;4.80;2.40;;;17.60;80.90;;;;;;5035143;28;20491;-69
2023/06/28 03:43:26;;;;;;;10.17;2.67;;;17.60;80.30;;;;;;5050461;28;20460;-71
2023/06/28 03:45:54;;;;;;;6.00;2.40;;;17.60;78.80;;;;;;5052070;28;20494;-70
2023/06/28 03:48:22;;;;;;;5.23;2.73;;;17.60;78.50;;;;;;5052481;28;20456;-71
2023/06/28 03:50:51;;;;;;;3.97;2.70;;;17.60;79.20;;;;;;5051542;28;20448;-68
2023/06/28 03:53:19;;;;;;;3.20;2.37;;;17.60;78.60;;;;;;5050592;28;20511;-68
2023/06/28 03:55:47;;;;;;;2.90;2.57;;;17.60;78.40;;;;;;5051620;28;20474;-69
2023/06/28 03:58:15;;;;;;;3.70;2.43;;;17.60;77.10;;;;;;5051872;28;20635;-69
2023/06/28 04:00:44;;;;;;;3.67;2.37;;;17.60;77.10;;;;;;5051419;28;20526;-69
2023/06/28 04:03:12;;;;;;;3.33;2.70;;;17.60;79.00;;;;;;5050482;28;21057;-68
2023/06/28 04:05:40;;;;;;;4.00;2.57;;;17.70;78.80;;;;;;5051479;28;20436;-69
2023/06/28 04:08:08;;;;;;;5.27;2.83;;;17.70;79.60;;;;;;5051492;28;20926;-69
2023/06/28 04:10:37;;;;;;;3.03;2.43;;;17.70;79.10;;;;;;5051317;28;20497;-68
2023/06/28 04:13:06;;;;;;;4.40;2.83;;;17.70;79.50;;;;;;5050040;28;20837;-68
2023/06/28 04:15:34;;;;;;;5.07;2.77;;;17.80;78.60;;;;;;5051090;28;20498;-69
2023/06/28 04:18:03;;;;;;;4.30;2.17;;;17.80;80.30;;;;;;5051241;28;20447;-69
2023/06/28 04:20:31;;;;;;;5.93;3.00;;;17.80;80.40;;;;;;5051675;28;20452;-68
2023/06/28 04:22:59;;;;;;;5.67;3.33;;;17.90;78.80;;;;;;5049885;28;20491;-68
2023/06/28 04:25:27;;;;;;;2.83;2.60;;;17.90;79.80;;;;;;5051643;28;20444;-67
2023/06/28 04:27:55;;;;;;;3.33;3.03;;;17.90;79.80;;;;;;5051251;28;20448;-68
2023/06/28 04:30:24;;;;;;;4.03;3.03;;;17.90;77.70;;;;;;5051098;28;20446;-67
2023/06/28 04:32:52;;;;;;;5.30;2.77;;;18.00;79.60;;;;;;5050255;28;20551;-68
2023/06/28 04:35:22;;;;;;;3.27;2.97;;;18.10;76.90;;;;;;5040730;28;20519;-68
2023/06/28 04:37:50;;;;;;;3.67;2.60;;;18.20;77.70;;;;;;5031159;28;20446;-68
2023/06/28 04:40:18;;;;;;;6.97;2.90;;;18.10;78.20;;;;;;5030689;28;20451;-68
2023/06/28 04:42:46;;;;;;;3.20;2.90;;;18.10;77.70;;;;;;5029637;28;20499;-68
2023/06/28 04:45:14;;;;;;;4.43;2.80;;;18.20;76.10;;;;;;5030785;28;20437;-68
2023/06/28 04:47:43;;;;;;;4.50;3.40;;;18.20;80.10;;;;;;5031056;28;20502;-68
2023/06/28 04:50:11;;;;;;;5.83;3.50;;;18.20;78.30;;;;;;5031003;28;20453;-69
2023/06/28 04:52:40;;;;;;;4.37;3.20;;;18.40;75.40;;;;;;5029225;28;20978;-68
2023/06/28 04:55:09;;;;;;;4.80;3.00;;;18.40;74.40;;;;;;5030674;28;20445;-68
2023/06/28 04:57:37;;;;;;;3.83;2.77;;;18.50;74.10;;;;;;5030221;28;21128;-68
2023/06/28 05:00:09;;;;;;;5.80;3.70;;;18.50;74.10;;;;;;5030786;28;20581;-69
2023/06/28 05:02:38;;;;;;;3.03;2.73;;;18.50;75.50;;;;;;5029336;28;20493;-71
2023/06/28 05:05:07;;;;;;;5.40;3.10;;;18.50;80.10;;;;;;5031105;28;20448;-70
2023/06/28 05:07:35;;;;;;;5.60;3.70;;;18.50;77.30;;;;;;5029712;28;20449;-68
2023/06/28 05:10:05;;;;;;;3.93;3.30;;;18.40;80.40;;;;;;5030239;28;20445;-69
2023/06/28 05:12:34;;;;;;;5.80;2.60;;;18.50;78.40;;;;;;5055230;28;20470;-70
2023/06/28 05:15:02;;;;;;;4.00;3.00;;;18.50;78.00;;;;;;5055701;28;20472;-70
2023/06/28 05:17:30;;;;;;;3.43;2.50;;;18.50;80.50;;;;;;5050013;28;20475;-70
2023/06/28 05:19:58;;;;;;;4.70;3.00;;;18.50;77.50;;;;;;5049845;28;20497;-69
2023/06/28 05:22:27;;;;;;;3.23;2.63;;;18.50;77.20;;;;;;5048706;28;20439;-69
2023/06/28 05:24:55;;;;;;;5.00;3.03;;;18.60;77.10;;;;;;5048713;28;21119;-69
2023/06/28 05:27:24;;;;;;;4.40;2.90;;;18.60;76.70;;;;;;5049902;28;20436;-70
2023/06/28 05:29:52;;;;;;;3.10;2.77;;;18.60;75.80;;;;;;5049980;28;20459;-69
2023/06/28 05:32:20;;;;;;;5.10;3.80;;;18.50;75.50;;;;;;5049265;28;21357;-69
2023/06/28 05:34:48;;;;;;;4.67;2.67;;;18.50;78.40;;;;;;5049468;28;20444;-70
2023/06/28 05:37:16;;;;;;;4.07;3.30;;;18.40;77.50;;;;;;5049751;28;20511;-70
2023/06/28 05:39:45;;;;;;;4.47;3.30;;;18.40;77.40;;;;;;5050024;28;20468;-71
2023/06/28 05:42:13;;;;;;;4.20;3.47;;;18.30;77.10;;;;;;5049438;28;20474;-69
2023/06/28 05:44:42;;;;;;;4.73;3.13;;;18.40;78.50;;;;;;5049154;28;20993;-69
2023/06/28 05:47:10;;;;;;;5.33;3.17;;;18.60;79.90;;;;;;5049735;28;20525;-69
2023/06/28 05:49:39;;;;;;;7.77;3.43;;;18.80;76.20;;;;;;5049976;28;20501;-69
2023/06/28 05:52:08;;;;;;;3.43;3.13;;;18.90;76.20;;;;;;5049354;28;20448;-68
2023/06/28 05:54:36;;;;;;;4.90;3.00;;;19.10;74.20;;;;;;5048426;28;20518;-70
2023/06/28 05:57:06;;;;;;;9.80;3.27;;;19.20;73.80;;;;;;5048436;28;20503;-69
2023/06/28 05:59:34;;;;;;;5.23;3.07;;;19.40;73.10;;;;;;5048496;28;20441;-69
2023/06/28 06:02:03;;;;;;;4.53;2.63;;;19.50;72.90;;;;;;5046138;28;20443;-69
2023/06/28 06:04:31;;;;;;;5.70;3.07;;;19.70;71.70;;;;;;5048002;28;20468;-69
2023/06/28 06:07:00;;;;;;;5.73;3.23;;;19.80;71.10;;;;;;5048817;28;20539;-69
2023/06/28 06:09:29;;;;;;;4.30;3.70;;;20.00;70.90;;;;;;5049397;28;20436;-69
2023/06/28 06:11:57;;;;;;;10.43;3.73;;;20.10;70.00;;;;;;5032018;28;20441;-70
2023/06/28 06:14:25;;;;;;;8.63;3.30;;;20.10;73.00;;;;;;5040177;28;20460;-70
2023/06/28 06:16:54;;;;;;;5.10;3.40;;;20.20;71.40;;;;;;5033955;28;20477;-70
2023/06/28 06:19:23;;;;;;;6.30;2.93;;;20.30;72.70;;;;;;5046150;28;20849;-70
2023/06/28 06:21:51;;;;;;;6.00;3.70;;;20.30;68.30;;;;;;5037179;28;20440;-70
2023/06/28 06:24:19;;;;;;;4.87;3.50;;;20.40;68.20;;;;;;5037750;28;20465;-70
2023/06/28 06:26:47;;;;;;;5.77;3.47;;;20.50;67.20;;;;;;5030213;28;20465;-72
2023/06/28 06:29:15;;;;;;;4.83;3.03;;;20.50;67.50;;;;;;5030645;28;20441;-72
2023/06/28 06:31:43;;;;;;;7.07;3.90;;;20.50;67.30;;;;;;5030240;28;20476;-71
2023/06/28 06:34:11;;;;;;;7.67;3.57;;;20.50;66.60;;;;;;5027992;28;20567;-70
2023/06/28 06:36:41;;;;;;;3.87;3.00;;;20.60;66.50;;;;;;5046064;28;20578;-70
2023/06/28 06:39:09;;;;;;;8.30;4.00;;;20.40;66.50;;;;;;5064535;28;20539;-70
2023/06/28 06:41:37;;;;;;;4.20;3.13;;;20.40;66.60;;;;;;5041028;28;20495;-70
2023/06/28 06:44:05;;;;;;;4.00;2.90;;;20.40;67.10;;;;;;5039346;28;20544;-70
2023/06/28 06:46:33;;;;;;;3.67;2.73;;;20.60;66.50;;;;;;5040475;28;20520;-70
2023/06/28 06:49:01;;;;;;;4.80;3.10;;;20.70;66.50;;;;;;5044502;28;20502;-70
2023/06/28 06:51:30;;;;;;;4.00;2.67;;;20.70;64.90;;;;;;5039573;28;20514;-71
2023/06/28 06:54:00;;;;;;;4.10;3.00;;;20.70;63.80;;;;;;5039694;28;20456;-71
2023/06/28 06:56:28;;;;;;;5.00;2.80;;;20.70;63.00;;;;;;5050995;28;20949;-71
2023/06/28 06:58:56;;;;;;;4.90;2.73;;;20.80;63.50;;;;;;5052761;28;20942;-70
2023/06/28 07:01:24;;;;;;;2.90;2.43;;;20.80;62.80;;;;;;5053193;28;20538;-70
2023/06/28 07:03:52;;;;;;;6.40;2.70;;;20.90;63.20;;;;;;5051656;28;20885;-70
2023/06/28 07:06:20;;;;;;;4.60;2.63;;;21.00;62.00;;;;;;5053096;28;20451;-71
2023/06/28 07:08:48;;;;;;;3.90;2.50;;;21.00;62.20;;;;;;5045606;28;20444;-71
2023/06/28 07:11:18;;;;;;;5.30;3.50;;;21.20;61.60;;;;;;5056301;28;20452;-70
2023/06/28 07:13:46;;;;;;;5.70;2.60;;;21.40;62.70;;;;;;5053152;28;20466;-70
2023/06/28 07:16:14;;;;;;;3.03;2.43;;;21.50;61.10;;;;;;5052865;28;20824;-71
2023/06/28 07:18:42;;;;;;;7.60;2.77;;;21.60;59.30;;;;;;5053009;28;20457;-71
2023/06/28 07:21:14;;;;;;;3.90;2.13;;;21.60;58.90;;;;;;5051737;28;20443;-70
2023/06/28 07:23:42;;;;;;;3.00;2.40;;;21.60;57.70;;;;;;5051391;28;20996;-71
2023/06/28 07:26:10;;;;;;;3.17;1.70;;;21.60;57.60;;;;;;5052190;28;20453;-70
2023/06/28 07:28:39;;;;;;;3.43;2.10;;;21.60;57.50;;;;;;5052549;28;20478;-70
2023/06/28 07:31:07;;;;;;;3.73;2.20;;;21.70;57.30;;;;;;5052155;28;21030;-70
2023/06/28 07:33:35;;;;;;;4.40;2.40;;;21.70;56.00;;;;;;5051117;28;20456;-70
2023/06/28 07:36:04;;;;;;;4.27;2.33;;;21.70;56.40;;;;;;5052146;28;21008;-71
2023/06/28 07:38:32;;;;;;;2.87;2.40;;;21.70;56.90;;;;;;5051984;28;20480;-70
2023/06/28 07:41:00;;;;;;;5.63;2.27;;;21.80;54.90;;;;;;5052156;28;20444;-70
2023/06/28 07:43:28;;;;;;;4.13;2.43;;;21.80;56.00;;;;;;5050559;28;20986;-70
2023/06/28 07:45:59;;;;;;;4.97;2.23;;;21.80;55.70;;;;;;5051850;28;20873;-70
2023/06/28 07:48:27;;;;;;;6.00;3.20;;;21.80;56.20;;;;;;5051365;28;20443;-70
2023/06/28 07:50:55;;;;;;;3.87;3.03;;;21.80;58.90;;;;;;5052017;28;20448;-71
2023/06/28 07:53:23;;;;;;;6.77;3.23;;;21.50;61.20;;;;;;5050531;28;20480;-70
2023/06/28 07:55:51;;;;;;;4.90;3.13;;;21.10;62.20;;;;;;5051462;28;20444;-71
2023/06/28 07:58:20;;;;;;;4.27;3.13;;;21.20;62.60;;;;;;5051884;28;20534;-70
2023/06/28 08:00:48;;;;;;;7.68;4.28;;;21.00;64.30;;;;;;5051771;28;20421;-70
2023/06/28 08:03:19;;;;;;;12.57;3.80;;;20.80;65.50;;;;;;5050209;28;20225;-70
2023/06/28 08:05:47;;;;;;;6.00;3.50;;;20.80;65.60;;;;;;5051476;28;20490;-70
2023/06/28 08:08:15;;;;;;;6.10;3.97;;;20.90;64.90;;;;;;5051595;28;20506;-70
2023/06/28 08:10:43;;;;;;;5.43;3.70;;;21.10;65.80;;;;;;5051695;28;20850;-70
2023/06/28 08:13:11;;;;;;;7.03;3.27;;;21.40;65.20;;;;;;5050352;28;20832;-70
2023/06/28 08:15:40;;;;;;;6.77;3.30;;;21.50;62.70;;;;;;5051547;28;20440;-70
2023/06/28 08:18:09;;;;;;;10.60;3.53;;;21.60;60.60;;;;;;5051211;28;20476;-70
2023/06/28 08:20:40;;;;;;;5.60;3.60;;;21.90;62.70;;;;;;5051521;28;20825;-69
2023/06/28 08:23:10;;;;;;;5.53;3.23;;;22.10;60.30;;;;;;5050235;28;20458;-70
2023/06/28 08:25:38;;;;;;;5.13;3.37;;;22.10;60.20;;;;;;5051156;28;20522;-70
2023/06/28 08:28:06;;;;;;;7.90;3.37;;;22.40;60.20;;;;;;5051392;28;20807;-70
2023/06/28 08:30:34;;;;;;;5.83;3.17;;;22.50;58.60;;;;;;5051221;28;20535;-70
2023/06/28 08:33:03;;;;;;;8.47;4.03;;;22.70;59.50;;;;;;5050071;28;20460;-70
2023/06/28 08:35:31;;;;;;;6.40;3.67;;;22.90;57.10;;;;;;5051356;28;20526;-70
2023/06/28 08:38:01;;;;;;;6.83;3.60;;;23.00;56.10;;;;;;5051154;28;20478;-71
2023/06/28 08:40:30;;;;;;;5.67;3.70;;;23.20;56.80;;;;;;5051046;28;20436;-70
2023/06/28 08:43:01;;;;;;;9.47;3.50;;;23.60;60.20;;;;;;5050007;28;20946;-70
2023/06/28 08:45:31;;;;;;;6.73;3.70;;;24.00;58.90;;;;;;5051130;28;20440;-70
2023/06/28 08:48:00;;;;;;;8.97;3.50;;;24.40;54.70;;;;;;5051585;28;20498;-71
2023/06/28 08:50:39;;;;;;;22.33;3.77;;;24.70;54.90;;;;;;5051123;28;20438;-70
2023/06/28 08:53:10;;;;;;;6.40;3.30;;;25.10;53.20;;;;;;5049492;28;20475;-70
2023/06/28 08:55:38;;;;;;;5.60;4.00;;;25.20;52.20;;;;;;5050856;28;20539;-71
2023/06/28 08:58:07;;;;;;;6.63;4.23;;;25.10;51.60;;;;;;5050545;28;20533;-70
2023/06/28 09:00:35;;;;;;;9.63;3.30;;;24.80;51.50;;;;;;5049855;28;20444;-70
2023/06/28 09:03:04;;;;;;;4.70;3.37;;;24.30;51.60;;;;;;5049559;28;20475;-71
2023/06/28 09:05:34;;;;;;;5.43;3.17;;;24.20;51.60;;;;;;5050653;28;20443;-71
2023/06/28 09:08:03;;;;;;;4.07;3.30;;;24.50;51.10;;;;;;5050351;28;20515;-71
2023/06/28 09:10:33;;;;;;;7.90;3.37;;;25.00;52.10;;;;;;5050591;28;20475;-71
2023/06/28 09:13:01;;;;;;;5.13;3.50;;;25.40;51.80;;;;;;5049168;28;20468;-71
2023/06/28 09:15:29;;;;;;;9.63;2.87;;;25.90;49.10;;;;;;5050536;28;20446;-71
2023/06/28 09:17:58;;;;;;;6.57;3.50;;;26.10;46.70;;;;;;5050224;28;20476;-70
2023/06/28 09:20:26;;;;;;;5.73;3.17;;;25.60;46.20;;;;;;5050268;28;20447;-70
2023/06/28 09:22:59;;;;;;;3.90;3.17;;;24.90;48.30;;;;;;5048920;28;20526;-70
2023/06/28 09:25:29;;;;;;;5.53;3.47;;;24.70;49.10;;;;;;5050188;28;20452;-71
2023/06/28 09:27:59;;;;;;;6.03;3.20;;;24.80;49.30;;;;;;5050275;28;20463;-71
2023/06/28 09:30:28;;;;;;;4.50;3.00;;;25.30;48.90;;;;;;5050365;28;20483;-71
2023/06/28 09:32:56;;;;;;;6.90;3.13;;;25.90;48.60;;;;;;5048716;28;20555;-71
2023/06/28 09:35:24;;;;;;;8.23;3.87;;;26.70;48.80;;;;;;5049848;28;20506;-72
2023/06/28 09:37:57;;;;;;;7.60;2.70;;;26.80;47.30;;;;;;5050434;28;20472;-70
2023/06/28 09:40:26;;;;;;;4.00;2.80;;;26.80;45.80;;;;;;5050036;28;20440;-72
2023/06/28 09:42:54;;;;;;;7.50;3.30;;;26.60;45.80;;;;;;5048740;28;20987;-71
2023/06/28 09:45:27;;;;;;;7.40;3.90;;;26.50;45.60;;;;;;5049857;28;20502;-71
2023/06/28 09:48:00;;;;;;;4.40;3.40;;;26.30;44.80;;;;;;5049960;28;20432;-71
2023/06/28 09:50:39;;;;;;;7.07;2.90;;;26.00;45.50;;;;;;5049801;28;20507;-71
2023/06/28 09:53:09;;;;;;;8.93;4.50;;;26.00;44.70;;;;;;5048216;28;20558;-70
2023/06/28 09:55:41;;;;;;;3.90;3.30;;;25.70;45.30;;;;;;5049631;28;20448;-71
2023/06/28 09:58:11;;;;;;;6.97;3.10;;;25.80;47.80;;;;;;5049529;28;20476;-71
2023/06/28 10:00:42;;;;;;;5.20;3.40;;;25.80;45.80;;;;;;5049774;28;20474;-71
2023/06/28 10:03:12;;;;;;;5.73;3.30;;;25.80;46.40;;;;;;5048492;28;20555;-70
2023/06/28 10:05:42;;;;;;;7.20;3.10;;;25.60;46.40;;;;;;5049777;28;20456;-71
2023/06/28 10:08:13;;;;;;;6.20;3.10;;;25.60;45.60;;;;;;5049747;28;20432;-71
2023/06/28 10:10:43;;;;;;;9.20;3.10;;;25.60;46.10;;;;;;5049544;28;20448;-71
2023/06/28 10:13:14;;;;;;;3.67;3.10;;;26.60;43.80;;;;;;5051808;28;20467;-71
2023/06/28 10:15:49;;;;;;;3.57;2.80;;;27.30;42.80;;;;;;5053732;28;20934;-72
2023/06/28 10:18:18;;;;;;;5.30;3.20;;;27.80;42.10;;;;;;5053671;28;20506;-71
2023/06/28 10:20:47;;;;;;;5.27;3.10;;;27.70;41.30;;;;;;5053605;28;20443;-71
2023/06/28 10:23:17;;;;;;;10.97;2.80;;;26.90;42.00;;;;;;5052349;28;20464;-71
2023/06/28 10:25:46;;;;;;;3.80;2.03;;;26.40;44.80;;;;;;5053820;28;20450;-70
2023/06/28 10:28:14;;;;;;;5.00;3.13;;;26.00;43.80;;;;;;5053712;28;20444;-71
2023/06/28 10:30:44;;;;;;;4.57;2.40;;;25.80;43.90;;;;;;5053735;28;20447;-71
2023/06/28 10:33:15;;;;;;;6.13;2.53;;;26.20;44.50;;;;;;5052458;28;20580;-71
2023/06/28 10:35:45;;;;;;;3.87;2.30;;;27.00;44.10;;;;;;5053674;28;20985;-70
2023/06/28 10:38:13;;;;;;;3.00;2.60;;;27.90;41.20;;;;;;5053842;28;20436;-70
2023/06/28 10:40:42;;;;;;;3.93;2.53;;;28.20;39.40;;;;;;5053781;28;20518;-71
2023/06/28 10:43:22;;;;;;;4.43;2.37;;;28.20;39.50;;;;;;5053034;28;20814;-70
2023/06/28 10:45:52;;;;;;;3.60;2.40;;;27.80;39.60;;;;;;5053714;28;20440;-71
2023/06/28 10:48:22;;;;;;;6.63;2.77;;;27.60;39.80;;;;;;5053361;28;20957;-71
2023/06/28 10:50:51;;;;;;;4.77;1.87;;;27.90;39.40;;;;;;5053613;28;20436;-71
2023/06/28 10:53:21;;;;;;;4.20;2.20;;;28.60;38.40;;;;;;5051847;28;20572;-71
2023/06/28 10:56:12;;;;;;;6.33;2.47;;;28.70;37.60;;;;;;5052890;28;20498;-72
2023/06/28 10:58:41;;;;;;;5.27;2.00;;;28.70;37.20;;;;;;5052985;28;20463;-71
2023/06/28 11:01:12;;;;;;;3.67;2.23;;;28.90;37.20;;;;;;5052897;28;20440;-71
2023/06/28 11:03:42;;;;;;;5.73;2.50;;;29.10;38.00;;;;;;5051909;28;20487;-71
2023/06/28 11:06:11;;;;;;;5.33;2.43;;;29.50;36.80;;;;;;5053244;28;20526;-70
2023/06/28 11:08:41;;;;;;;3.57;2.10;;;29.50;36.40;;;;;;5052920;28;20440;-71
2023/06/28 11:11:11;;;;;;;4.50;2.50;;;29.20;37.50;;;;;;5052605;28;20446;-70
2023/06/28 11:13:48;;;;;;;4.67;2.20;;;27.80;37.70;;;;;;5051644;28;20470;-70
2023/06/28 11:16:22;;;;;;;4.70;2.63;;;27.30;40.80;;;;;;5052795;28;20479;-71
2023/06/28 11:18:52;;;;;;;4.17;2.67;;;27.70;39.60;;;;;;5052588;28;21040;-71
2023/06/28 11:21:25;;;;;;;4.47;2.43;;;28.20;39.00;;;;;;5052444;28;20536;-70
2023/06/28 11:23:55;;;;;;;5.20;2.13;;;28.00;38.70;;;;;;5050437;28;20510;-70
2023/06/28 11:26:33;;;;;;;6.53;3.03;;;27.30;39.50;;;;;;5052479;28;20494;-70
2023/06/28 11:29:02;;;;;;;3.60;2.10;;;27.50;40.30;;;;;;5052424;28;20439;-71
2023/06/28 11:31:40;;;;;;;3.90;2.50;;;28.00;39.50;;;;;;5052240;28;20495;-70
2023/06/28 11:34:09;;;;;;;3.33;2.43;;;29.10;37.70;;;;;;5050907;28;20491;-71
2023/06/28 11:36:38;;;;;;;5.90;2.33;;;29.70;36.50;;;;;;5052131;28;20455;-71
2023/06/28 11:39:07;;;;;;;4.73;2.50;;;30.30;36.00;;;;;;5052300;28;20483;-71
2023/06/28 11:41:35;;;;;;;3.50;2.03;;;30.30;36.00;;;;;;5052396;28;20543;-70
2023/06/28 11:44:05;;;;;;;7.10;2.40;;;30.00;35.10;;;;;;5050914;28;20594;-70
2023/06/28 11:46:35;;;;;;;3.33;2.20;;;29.60;36.00;;;;;;5034785;28;20515;-71
2023/06/28 11:49:04;;;;;;;5.43;2.37;;;29.70;36.20;;;;;;5026446;28;20528;-70
2023/06/28 11:51:33;;;;;;;5.77;2.23;;;29.30;36.00;;;;;;5031172;28;20449;-70
2023/06/28 11:54:01;;;;;;;3.60;2.27;;;28.10;37.40;;;;;;5037471;28;20555;-71
2023/06/28 11:56:34;;;;;;;3.50;1.83;;;27.90;38.80;;;;;;5041160;28;20468;-72
2023/06/28 11:59:15;;;;;;;2.23;1.60;;;29.20;38.20;;;;;;5039108;28;20465;-72
2023/06/28 12:01:44;;;;;;;3.23;2.10;;;30.00;35.10;;;;;;5041157;28;20445;-70
2023/06/28 12:04:19;;;;;;;3.20;2.03;;;29.30;35.40;;;;;;5040419;28;20834;-71
2023/06/28 12:06:50;;;;;;;3.67;2.30;;;29.60;36.00;;;;;;5042247;28;20445;-70
2023/06/28 12:09:19;;;;;;;3.03;2.10;;;29.40;36.00;;;;;;5040802;28;20971;-71
2023/06/28 12:11:53;;;;;;;6.57;2.20;;;29.10;36.30;;;;;;5042071;28;20510;-71
2023/06/28 12:14:21;;;;;;;3.17;2.37;;;29.30;36.40;;;;;;5041639;28;21213;-72
2023/06/28 12:16:50;;;;;;;3.20;2.30;;;29.50;35.60;;;;;;5042635;28;20463;-71
2023/06/28 12:19:20;;;;;;;4.60;2.00;;;30.20;34.60;;;;;;5041368;28;20889;-71
2023/06/28 12:21:48;;;;;;;5.17;2.57;;;31.00;35.30;;;;;;5041208;28;20942;-71
2023/06/28 12:24:20;;;;;;;5.20;2.17;;;30.90;33.90;;;;;;5039547;28;20510;-71
2023/06/28 12:26:49;;;;;;;4.83;2.30;;;30.50;34.10;;;;;;5040934;28;20445;-70
2023/06/28 12:29:19;;;;;;;3.90;2.40;;;30.00;35.60;;;;;;5039323;28;20528;-70
2023/06/28 12:31:49;;;;;;;3.60;2.20;;;29.70;35.40;;;;;;5040891;28;20797;-70
2023/06/28 12:34:26;;;;;;;2.33;2.10;;;29.40;35.10;;;;;;5039968;28;20468;-70
2023/06/28 12:36:55;;;;;;;2.40;1.93;;;28.80;35.10;;;;;;5039800;28;20441;-69
2023/06/28 12:39:25;;;;;;;4.10;2.03;;;27.80;37.50;;;;;;5030880;28;20450;-70
2023/06/28 12:42:01;;;;;;;4.47;2.23;;;27.30;38.90;;;;;;5031076;28;21038;-70
2023/06/28 12:44:29;;;;;;;6.23;2.80;;;28.50;38.00;;;;;;5029630;28;20464;-70
2023/06/28 12:46:57;;;;;;;3.33;2.20;;;29.60;36.40;;;;;;5031174;28;20437;-70
2023/06/28 12:49:39;;;;;;;3.53;1.70;;;30.50;34.60;;;;;;5030775;28;20850;-70
2023/06/28 12:52:07;;;;;;;14.03;2.90;;;30.80;33.60;;;;;;5030692;28;20894;-70
2023/06/28 12:54:35;;;;;;;5.87;2.30;;;30.80;34.20;;;;;;5029566;28;20526;-69